sensor_id;sensor_type;location;lat;lon;timestamp;pressure;altitude;pressure_sealevel;temperature;humidity
32933;BME280;19444;50.518;10.870;2023-04-05T00:02:53;97184.34;;;-3.65;100.00
32933;BME280;19444;50.518;10.870;2023-04-05T00:05:50;97178.28;;;-3.59;100.00
32933;BME280;19444;50.518;10.870;2023-04-05T00:08:50;97170.03;;;-3.56;100.00
32933;BME280;19444;50.518;10.870;2023-04-05T00:11:47;97167.19;;;-3.81;100.00
32933;BME280;19444;50.518;10.870;2023-04-05T00:14:44;97154.09;;;-3.55;100.00
32933;BME280;19444;50.518;10.870;2023-04-05T00:17:42;97164.56;;;-3.68;100.00
32933;BME280;19444;50.518;10.870;2023-04-05T00:20:39;97159.34;;;-3.81;100.00
32933;BME280;19444;50.518;10.870;2023-04-05T00:23:36;97152.69;;;-3.64;100.00
32933;BME280;19444;50.518;10.870;2023-04-05T00:26:35;97164.59;;;-3.75;100.00
32933;BME280;19444;50.518;10.870;2023-04-05T00:29:32;97148.88;;;-3.55;100.00
32933;BME280;19444;50.518;10.870;2023-04-05T00:32:29;97153.50;;;-3.70;100.00
32933;BME280;19444;50.518;10.870;2023-04-05T00:35:27;97148.66;;;-3.60;100.00
32933;BME280;19444;50.518;10.870;2023-04-05T00:38:24;97161.97;;;-3.75;100.00
32933;BME280;19444;50.518;10.870;2023-04-05T00:41:21;97153.47;;;-3.77;100.00
32933;BME280;19444;50.518;10.870;2023-04-05T00:44:18;97158.91;;;-3.85;100.00
32933;BME280;19444;50.518;10.870;2023-04-05T00:47:15;97152.88;;;-3.79;100.00
32933;BME280;19444;50.518;10.870;2023-04-05T00:50:11;97155.50;;;-3.79;100.00
32933;BME280;19444;50.518;10.870;2023-04-05T00:53:09;97149.88;;;-3.82;100.00
32933;BME280;19444;50.518;10.870;2023-04-05T00:56:07;97149.22;;;-3.84;100.00
32933;BME280;19444;50.518;10.870;2023-04-05T00:59:04;97151.28;;;-3.80;100.00
32933;BME280;19444;50.518;10.870;2023-04-05T01:02:28;97149.47;;;-3.92;100.00
32933;BME280;19444;50.518;10.870;2023-04-05T01:12:44;97128.91;;;-3.69;100.00
32933;BME280;19444;50.518;10.870;2023-04-05T01:15:41;97133.53;;;-3.84;100.00
32933;BME280;19444;50.518;10.870;2023-04-05T01:18:38;97137.16;;;-3.85;100.00
32933;BME280;19444;50.518;10.870;2023-04-05T01:31:55;97133.94;;;-3.87;100.00
32933;BME280;19444;50.518;10.870;2023-04-05T01:35:15;97131.34;;;-3.81;100.00
32933;BME280;19444;50.518;10.870;2023-04-05T01:38:19;97128.69;;;-4.01;100.00
32933;BME280;19444;50.518;10.870;2023-04-05T01:41:17;97120.41;;;-4.04;100.00
32933;BME280;19444;50.518;10.870;2023-04-05T01:44:14;97125.84;;;-4.19;100.00
32933;BME280;19444;50.518;10.870;2023-04-05T01:47:12;97123.84;;;-4.10;100.00
32933;BME280;19444;50.518;10.870;2023-04-05T01:50:09;97120.00;;;-4.14;100.00
32933;BME280;19444;50.518;10.870;2023-04-05T01:53:06;97121.81;;;-4.15;100.00
32933;BME280;19444;50.518;10.870;2023-04-05T01:56:04;97122.25;;;-4.11;100.00
32933;BME280;19444;50.518;10.870;2023-04-05T01:59:01;97116.78;;;-4.30;100.00
32933;BME280;19444;50.518;10.870;2023-04-05T02:01:58;97120.38;;;-4.31;100.00
32933;BME280;19444;50.518;10.870;2023-04-05T02:04:55;97118.81;;;-4.18;100.00
32933;BME280;19444;50.518;10.870;2023-04-05T02:07:52;97123.41;;;-4.27;100.00
32933;BME280;19444;50.518;10.870;2023-04-05T02:10:51;97117.38;;;-4.21;100.00
32933;BME280;19444;50.518;10.870;2023-04-05T02:13:48;97115.97;;;-4.23;100.00
32933;BME280;19444;50.518;10.870;2023-04-05T02:16:44;97121.78;;;-4.35;100.00
32933;BME280;19444;50.518;10.870;2023-04-05T02:19:42;97121.19;;;-4.23;100.00
32933;BME280;19444;50.518;10.870;2023-04-05T02:22:41;97115.78;;;-4.28;100.00
32933;BME280;19444;50.518;10.870;2023-04-05T02:25:41;97117.75;;;-4.31;100.00
32933;BME280;19444;50.518;10.870;2023-04-05T02:28:37;97111.31;;;-4.48;100.00
32933;BME280;19444;50.518;10.870;2023-04-05T02:31:34;97117.56;;;-4.36;100.00
32933;BME280;19444;50.518;10.870;2023-04-05T02:34:31;97120.56;;;-4.32;100.00
32933;BME280;19444;50.518;10.870;2023-04-05T02:37:29;97118.13;;;-4.40;100.00
32933;BME280;19444;50.518;10.870;2023-04-05T02:40:26;97111.72;;;-4.38;100.00
32933;BME280;19444;50.518;10.870;2023-04-05T02:43:23;97100.47;;;-4.38;100.00
32933;BME280;19444;50.518;10.870;2023-04-05T02:46:20;97104.28;;;-4.34;100.00
32933;BME280;19444;50.518;10.870;2023-04-05T02:49:17;97103.84;;;-4.51;100.00
32933;BME280;19444;50.518;10.870;2023-04-05T02:52:14;97102.63;;;-4.55;100.00
32933;BME280;19444;50.518;10.870;2023-04-05T02:55:11;97106.63;;;-4.59;100.00
32933;BME280;19444;50.518;10.870;2023-04-05T02:58:08;97100.63;;;-4.40;100.00
32933;BME280;19444;50.518;10.870;2023-04-05T03:01:05;97093.00;;;-4.48;100.00
32933;BME280;19444;50.518;10.870;2023-04-05T03:04:03;97093.41;;;-4.44;100.00
32933;BME280;19444;50.518;10.870;2023-04-05T03:07:03;97104.06;;;-4.39;100.00
32933;BME280;19444;50.518;10.870;2023-04-05T03:10:00;97101.41;;;-4.52;100.00
32933;BME280;19444;50.518;10.870;2023-04-05T03:12:58;97100.63;;;-4.53;100.00
32933;BME280;19444;50.518;10.870;2023-04-05T03:15:55;97098.22;;;-4.48;100.00
32933;BME280;19444;50.518;10.870;2023-04-05T03:18:51;97096.59;;;-4.42;100.00
32933;BME280;19444;50.518;10.870;2023-04-05T03:21:49;97103.44;;;-4.54;100.00
32933;BME280;19444;50.518;10.870;2023-04-05T03:24:46;97097.13;;;-4.67;100.00
32933;BME280;19444;50.518;10.870;2023-04-05T03:27:43;97094.72;;;-4.75;100.00
32933;BME280;19444;50.518;10.870;2023-04-05T03:30:41;97098.75;;;-4.72;100.00
32933;BME280;19444;50.518;10.870;2023-04-05T03:33:38;97101.38;;;-4.72;100.00
32933;BME280;19444;50.518;10.870;2023-04-05T03:36:35;97097.34;;;-4.75;100.00
32933;BME280;19444;50.518;10.870;2023-04-05T03:39:38;97097.34;;;-4.75;100.00
32933;BME280;19444;50.518;10.870;2023-04-05T03:42:35;97109.00;;;-4.71;100.00
32933;BME280;19444;50.518;10.870;2023-04-05T03:45:32;97101.56;;;-4.67;100.00
32933;BME280;19444;50.518;10.870;2023-04-05T03:48:29;97102.78;;;-4.70;100.00
32933;BME280;19444;50.518;10.870;2023-04-05T03:51:26;97105.38;;;-4.70;100.00
32933;BME280;19444;50.518;10.870;2023-04-05T03:54:23;97101.13;;;-4.77;100.00
32933;BME280;19444;50.518;10.870;2023-04-05T03:57:20;97107.97;;;-4.76;100.00
32933;BME280;19444;50.518;10.870;2023-04-05T04:00:17;97117.63;;;-4.77;100.00
32933;BME280;19444;50.518;10.870;2023-04-05T04:03:15;97117.44;;;-4.69;100.00
32933;BME280;19444;50.518;10.870;2023-04-05T04:06:12;97105.81;;;-4.66;100.00
32933;BME280;19444;50.518;10.870;2023-04-05T04:09:11;97112.28;;;-4.55;100.00
32933;BME280;19444;50.518;10.870;2023-04-05T04:12:07;97115.44;;;-4.67;100.00
32933;BME280;19444;50.518;10.870;2023-04-05T04:15:05;97117.78;;;-4.85;100.00
32933;BME280;19444;50.518;10.870;2023-04-05T04:18:02;97105.31;;;-4.90;100.00
32933;BME280;19444;50.518;10.870;2023-04-05T04:21:02;97113.03;;;-4.75;100.00
32933;BME280;19444;50.518;10.870;2023-04-05T04:24:02;97114.06;;;-4.63;100.00
32933;BME280;19444;50.518;10.870;2023-04-05T04:26:59;97120.88;;;-4.68;100.00
32933;BME280;19444;50.518;10.870;2023-04-05T04:29:56;97115.41;;;-4.80;100.00
32933;BME280;19444;50.518;10.870;2023-04-05T04:33:00;97106.72;;;-4.94;100.00
32933;BME280;19444;50.518;10.870;2023-04-05T04:36:07;97102.94;;;-4.84;100.00
32933;BME280;19444;50.518;10.870;2023-04-05T04:39:05;97108.72;;;-4.89;100.00
32933;BME280;19444;50.518;10.870;2023-04-05T04:42:02;97104.72;;;-4.92;100.00
32933;BME280;19444;50.518;10.870;2023-04-05T04:44:59;97109.09;;;-4.99;100.00
32933;BME280;19444;50.518;10.870;2023-04-05T04:47:58;97113.91;;;-4.96;100.00
32933;BME280;19444;50.518;10.870;2023-04-05T04:50:55;97103.72;;;-4.91;100.00
32933;BME280;19444;50.518;10.870;2023-04-05T04:53:53;97105.50;;;-4.91;100.00
32933;BME280;19444;50.518;10.870;2023-04-05T04:56:49;97110.31;;;-4.95;100.00
32933;BME280;19444;50.518;10.870;2023-04-05T04:59:46;97110.94;;;-4.86;100.00
32933;BME280;19444;50.518;10.870;2023-04-05T05:02:43;97112.91;;;-5.01;100.00
32933;BME280;19444;50.518;10.870;2023-04-05T05:05:49;97115.81;;;-4.83;100.00
32933;BME280;19444;50.518;10.870;2023-04-05T05:08:47;97107.59;;;-4.73;100.00
32933;BME280;19444;50.518;10.870;2023-04-05T05:11:44;97115.00;;;-4.77;100.00
32933;BME280;19444;50.518;10.870;2023-04-05T05:14:41;97109.00;;;-4.71;100.00
32933;BME280;19444;50.518;10.870;2023-04-05T05:17:38;97115.06;;;-4.64;100.00
32933;BME280;19444;50.518;10.870;2023-04-05T05:20:35;97105.84;;;-4.53;100.00
32933;BME280;19444;50.518;10.870;2023-04-05T05:23:33;97116.06;;;-4.65;100.00
32933;BME280;19444;50.518;10.870;2023-04-05T05:26:29;97110.69;;;-4.56;100.00
32933;BME280;19444;50.518;10.870;2023-04-05T05:29:26;97108.59;;;-4.68;100.00
32933;BME280;19444;50.518;10.870;2023-04-05T05:32:23;97114.69;;;-4.54;100.00
32933;BME280;19444;50.518;10.870;2023-04-05T05:35:20;97109.66;;;-4.55;100.00
32933;BME280;19444;50.518;10.870;2023-04-05T05:38:17;97100.00;;;-4.48;100.00
32933;BME280;19444;50.518;10.870;2023-04-05T05:41:14;97099.88;;;-4.14;100.00
32933;BME280;19444;50.518;10.870;2023-04-05T05:44:11;97101.72;;;-4.08;100.00
32933;BME280;19444;50.518;10.870;2023-04-05T05:47:09;97097.66;;;-4.37;100.00
32933;BME280;19444;50.518;10.870;2023-04-05T05:50:06;97100.66;;;-4.33;100.00
32933;BME280;19444;50.518;10.870;2023-04-05T05:53:05;97095.41;;;-4.33;100.00
32933;BME280;19444;50.518;10.870;2023-04-05T05:56:02;97096.84;;;-4.37;100.00
32933;BME280;19444;50.518;10.870;2023-04-05T05:58:58;97093.03;;;-4.21;100.00
32933;BME280;19444;50.518;10.870;2023-04-05T06:01:57;97081.97;;;-4.10;100.00
32933;BME280;19444;50.518;10.870;2023-04-05T06:04:54;97086.59;;;-4.06;100.00
32933;BME280;19444;50.518;10.870;2023-04-05T06:07:51;97088.63;;;-3.94;100.00
32933;BME280;19444;50.518;10.870;2023-04-05T06:10:49;97088.81;;;-3.89;100.00
32933;BME280;19444;50.518;10.870;2023-04-05T06:13:46;97086.41;;;-3.78;100.00
32933;BME280;19444;50.518;10.870;2023-04-05T06:16:43;97097.88;;;-3.79;100.00
32933;BME280;19444;50.518;10.870;2023-04-05T06:19:40;97088.00;;;-3.70;100.00
32933;BME280;19444;50.518;10.870;2023-04-05T06:22:39;97077.13;;;-3.54;100.00
32933;BME280;19444;50.518;10.870;2023-04-05T06:25:36;97078.94;;;-3.54;100.00
32933;BME280;19444;50.518;10.870;2023-04-05T06:28:33;97075.84;;;-3.31;100.00
32933;BME280;19444;50.518;10.870;2023-04-05T06:31:33;97084.50;;;-3.18;100.00
32933;BME280;19444;50.518;10.870;2023-04-05T06:34:30;97083.66;;;-3.11;100.00
32933;BME280;19444;50.518;10.870;2023-04-05T06:37:27;97073.38;;;-3.06;100.00
32933;BME280;19444;50.518;10.870;2023-04-05T06:40:24;97073.88;;;-2.78;100.00
32933;BME280;19444;50.518;10.870;2023-04-05T06:43:21;97074.66;;;-2.71;100.00
32933;BME280;19444;50.518;10.870;2023-04-05T06:46:18;97070.22;;;-2.77;100.00
32933;BME280;19444;50.518;10.870;2023-04-05T06:49:15;97062.16;;;-2.75;100.00
32933;BME280;19444;50.518;10.870;2023-04-05T06:52:12;97073.78;;;-2.58;100.00
32933;BME280;19444;50.518;10.870;2023-04-05T06:55:09;97079.75;;;-2.44;100.00
32933;BME280;19444;50.518;10.870;2023-04-05T06:58:06;97072.00;;;-2.33;100.00
32933;BME280;19444;50.518;10.870;2023-04-05T07:01:03;97072.53;;;-2.17;100.00
32933;BME280;19444;50.518;10.870;2023-04-05T07:04:00;97069.81;;;-2.04;100.00
32933;BME280;19444;50.518;10.870;2023-04-05T07:06:59;97066.28;;;-1.91;100.00
32933;BME280;19444;50.518;10.870;2023-04-05T07:09:58;97072.06;;;-1.83;100.00
32933;BME280;19444;50.518;10.870;2023-04-05T07:12:55;97074.09;;;-1.85;100.00
32933;BME280;19444;50.518;10.870;2023-04-05T07:15:58;97060.22;;;-1.92;100.00
32933;BME280;19444;50.518;10.870;2023-04-05T07:18:56;97062.56;;;-1.84;100.00
32933;BME280;19444;50.518;10.870;2023-04-05T07:21:55;97051.28;;;-1.66;100.00
32933;BME280;19444;50.518;10.870;2023-04-05T07:24:52;97058.56;;;-1.43;100.00
32933;BME280;19444;50.518;10.870;2023-04-05T07:27:51;97053.41;;;-1.13;100.00
32933;BME280;19444;50.518;10.870;2023-04-05T07:30:48;97047.09;;;-1.12;100.00
32933;BME280;19444;50.518;10.870;2023-04-05T07:33:45;97051.63;;;-1.01;100.00
32933;BME280;19444;50.518;10.870;2023-04-05T07:36:42;97043.97;;;-0.54;100.00
32933;BME280;19444;50.518;10.870;2023-04-05T07:39:39;97048.22;;;-0.53;100.00
32933;BME280;19444;50.518;10.870;2023-04-05T07:42:36;97049.13;;;-0.17;100.00
32933;BME280;19444;50.518;10.870;2023-04-05T07:45:33;97049.00;;;-0.11;100.00
32933;BME280;19444;50.518;10.870;2023-04-05T07:48:30;97048.28;;;0.24;100.00
32933;BME280;19444;50.518;10.870;2023-04-05T07:51:27;97036.03;;;0.41;100.00
32933;BME280;19444;50.518;10.870;2023-04-05T07:54:24;97036.91;;;0.70;100.00
32933;BME280;19444;50.518;10.870;2023-04-05T07:57:21;97042.31;;;0.75;100.00
32933;BME280;19444;50.518;10.870;2023-04-05T08:00:19;97044.81;;;0.70;100.00
32933;BME280;19444;50.518;10.870;2023-04-05T08:03:16;97034.72;;;0.79;100.00
32933;BME280;19444;50.518;10.870;2023-04-05T08:06:15;97041.34;;;1.05;100.00
32933;BME280;19444;50.518;10.870;2023-04-05T08:09:14;97034.66;;;3.59;100.00
32933;BME280;19444;50.518;10.870;2023-04-05T08:12:11;97034.88;;;2.15;91.27
32933;BME280;19444;50.518;10.870;2023-04-05T08:15:09;97042.00;;;2.31;79.58
32933;BME280;19444;50.518;10.870;2023-04-05T08:18:06;97039.34;;;2.14;83.65
32933;BME280;19444;50.518;10.870;2023-04-05T08:21:03;97033.47;;;1.79;82.89
32933;BME280;19444;50.518;10.870;2023-04-05T08:24:00;97040.53;;;2.07;85.71
32933;BME280;19444;50.518;10.870;2023-04-05T08:26:56;97039.03;;;1.94;74.72
32933;BME280;19444;50.518;10.870;2023-04-05T08:29:53;97033.97;;;2.09;77.50
32933;BME280;19444;50.518;10.870;2023-04-05T08:32:50;97029.00;;;1.79;80.56
32933;BME280;19444;50.518;10.870;2023-04-05T08:35:47;97029.03;;;2.13;77.13
32933;BME280;19444;50.518;10.870;2023-04-05T08:38:44;97034.53;;;2.28;74.52
32933;BME280;19444;50.518;10.870;2023-04-05T08:41:54;97020.34;;;2.17;74.98
32933;BME280;19444;50.518;10.870;2023-04-05T08:44:59;97017.25;;;2.20;90.52
32933;BME280;19444;50.518;10.870;2023-04-05T08:47:58;97021.41;;;2.16;91.17
32933;BME280;19444;50.518;10.870;2023-04-05T08:50:55;97019.66;;;2.22;89.80
32933;BME280;19444;50.518;10.870;2023-04-05T08:53:53;97028.63;;;2.04;84.55
32933;BME280;19444;50.518;10.870;2023-04-05T08:56:51;97024.94;;;2.22;86.65
32933;BME280;19444;50.518;10.870;2023-04-05T08:59:50;97021.56;;;2.10;88.67
32933;BME280;19444;50.518;10.870;2023-04-05T09:02:52;97024.28;;;2.48;89.70
32933;BME280;19444;50.518;10.870;2023-04-05T09:05:52;97018.78;;;2.55;83.07
32933;BME280;19444;50.518;10.870;2023-04-05T09:08:49;97014.34;;;2.05;80.60
32933;BME280;19444;50.518;10.870;2023-04-05T09:11:46;97015.78;;;2.85;83.38
32933;BME280;19444;50.518;10.870;2023-04-05T09:14:44;97015.72;;;3.02;73.26
32933;BME280;19444;50.518;10.870;2023-04-05T09:17:42;97009.38;;;3.52;72.55
32933;BME280;19444;50.518;10.870;2023-04-05T09:20:39;97017.31;;;2.42;67.06
32933;BME280;19444;50.518;10.870;2023-04-05T09:23:37;97018.88;;;2.60;67.70
32933;BME280;19444;50.518;10.870;2023-04-05T09:26:46;97026.13;;;2.87;73.51
32933;BME280;19444;50.518;10.870;2023-04-05T09:29:46;97008.00;;;3.00;78.79
32933;BME280;19444;50.518;10.870;2023-04-05T09:32:46;97011.94;;;2.98;74.78
32933;BME280;19444;50.518;10.870;2023-04-05T09:35:43;97014.84;;;3.18;76.98
32933;BME280;19444;50.518;10.870;2023-04-05T09:38:43;97014.25;;;3.11;67.32
32933;BME280;19444;50.518;10.870;2023-04-05T09:41:40;97014.13;;;3.23;66.55
32933;BME280;19444;50.518;10.870;2023-04-05T09:47:56;97017.34;;;2.64;70.50
32933;BME280;19444;50.518;10.870;2023-04-05T09:51:04;97015.06;;;3.11;64.20
32933;BME280;19444;50.518;10.870;2023-04-05T09:54:10;97008.38;;;3.31;66.17
32933;BME280;19444;50.518;10.870;2023-04-05T09:57:07;97015.63;;;3.19;60.90
32933;BME280;19444;50.518;10.870;2023-04-05T10:00:18;97010.84;;;3.16;62.90
32933;BME280;19444;50.518;10.870;2023-04-05T10:03:16;97009.53;;;3.40;59.13
32933;BME280;19444;50.518;10.870;2023-04-05T10:06:14;96995.03;;;7.30;51.89
32933;BME280;19444;50.518;10.870;2023-04-05T10:09:12;96987.84;;;8.14;48.21
32933;BME280;19444;50.518;10.870;2023-04-05T10:12:26;96993.38;;;6.75;50.42
32933;BME280;19444;50.518;10.870;2023-04-05T10:15:25;96987.19;;;7.93;47.25
32933;BME280;19444;50.518;10.870;2023-04-05T10:18:27;96964.84;;;10.92;42.60
32933;BME280;19444;50.518;10.870;2023-04-05T10:21:29;96958.88;;;11.59;38.30
32933;BME280;19444;50.518;10.870;2023-04-05T10:24:56;96956.28;;;11.18;42.73
32933;BME280;19444;50.518;10.870;2023-04-05T10:28:04;96962.50;;;8.94;43.58
32933;BME280;19444;50.518;10.870;2023-04-05T10:34:47;96960.50;;;7.59;43.67
32933;BME280;19444;50.518;10.870;2023-04-05T10:38:16;96961.63;;;9.22;43.52
32933;BME280;19444;50.518;10.870;2023-04-05T10:41:15;96951.13;;;10.01;40.68
32933;BME280;19444;50.518;10.870;2023-04-05T10:44:14;96942.84;;;11.67;40.11
32933;BME280;19444;50.518;10.870;2023-04-05T10:47:22;96942.97;;;10.58;40.57
32933;BME280;19444;50.518;10.870;2023-04-05T10:50:24;96934.84;;;10.90;39.57
32933;BME280;19444;50.518;10.870;2023-04-05T10:53:21;96938.09;;;10.46;38.99
32933;BME280;19444;50.518;10.870;2023-04-05T10:56:19;96939.22;;;10.86;40.35
32933;BME280;19444;50.518;10.870;2023-04-05T10:59:17;96929.22;;;12.22;36.83
32933;BME280;19444;50.518;10.870;2023-04-05T11:02:15;96933.16;;;10.80;38.40
32933;BME280;19444;50.518;10.870;2023-04-05T11:05:35;96924.72;;;11.51;37.86
32933;BME280;19444;50.518;10.870;2023-04-05T11:08:33;96925.94;;;9.69;40.50
32933;BME280;19444;50.518;10.870;2023-04-05T11:11:44;96941.13;;;9.74;39.18
32933;BME280;19444;50.518;10.870;2023-04-05T11:14:41;96925.31;;;12.06;34.72
32933;BME280;19444;50.518;10.870;2023-04-05T11:17:40;96916.31;;;12.64;39.42
32933;BME280;19444;50.518;10.870;2023-04-05T11:24:08;96907.19;;;12.74;35.19
32933;BME280;19444;50.518;10.870;2023-04-05T11:27:08;96917.19;;;10.62;36.38
32933;BME280;19444;50.518;10.870;2023-04-05T11:30:06;96908.69;;;11.59;34.09
32933;BME280;19444;50.518;10.870;2023-04-05T11:33:07;96905.00;;;12.85;34.18
32933;BME280;19444;50.518;10.870;2023-04-05T11:36:04;96910.41;;;11.42;36.43
32933;BME280;19444;50.518;10.870;2023-04-05T11:42:19;96889.66;;;12.85;35.68
32933;BME280;19444;50.518;10.870;2023-04-05T11:45:18;96889.34;;;12.47;35.42
32933;BME280;19444;50.518;10.870;2023-04-05T11:48:16;96900.09;;;10.58;35.72
32933;BME280;19444;50.518;10.870;2023-04-05T11:51:13;96893.22;;;10.93;35.56
32933;BME280;19444;50.518;10.870;2023-04-05T11:54:11;96877.66;;;11.31;34.85
32933;BME280;19444;50.518;10.870;2023-04-05T11:57:12;96873.75;;;12.58;33.47
32933;BME280;19444;50.518;10.870;2023-04-05T12:00:10;96867.75;;;12.69;33.02
32933;BME280;19444;50.518;10.870;2023-04-05T12:03:15;96868.47;;;12.92;33.05
32933;BME280;19444;50.518;10.870;2023-04-05T12:06:12;96867.63;;;12.04;34.52
32933;BME280;19444;50.518;10.870;2023-04-05T12:09:09;96865.56;;;12.80;32.57
32933;BME280;19444;50.518;10.870;2023-04-05T12:12:15;96854.25;;;13.09;33.34
32933;BME280;19444;50.518;10.870;2023-04-05T12:15:14;96852.72;;;13.25;32.35
32933;BME280;19444;50.518;10.870;2023-04-05T12:18:13;96853.97;;;11.91;34.90
32933;BME280;19444;50.518;10.870;2023-04-05T12:21:11;96857.81;;;12.30;33.90
32933;BME280;19444;50.518;10.870;2023-04-05T12:24:08;96841.81;;;14.29;31.28
32933;BME280;19444;50.518;10.870;2023-04-05T12:27:05;96843.03;;;14.40;31.88
32933;BME280;19444;50.518;10.870;2023-04-05T12:30:06;96847.50;;;13.20;33.01
32933;BME280;19444;50.518;10.870;2023-04-05T12:33:07;96839.22;;;13.86;31.81
32933;BME280;19444;50.518;10.870;2023-04-05T12:36:07;96846.53;;;13.77;34.73
32933;BME280;19444;50.518;10.870;2023-04-05T12:39:07;96843.44;;;12.74;32.67
32933;BME280;19444;50.518;10.870;2023-04-05T12:42:04;96839.91;;;13.31;40.94
32933;BME280;19444;50.518;10.870;2023-04-05T12:45:03;96829.81;;;12.62;39.75
32933;BME280;19444;50.518;10.870;2023-04-05T12:48:00;96828.44;;;14.41;47.81
32933;BME280;19444;50.518;10.870;2023-04-05T12:50:57;96825.16;;;13.72;39.50
32933;BME280;19444;50.518;10.870;2023-04-05T12:54:01;96838.31;;;10.08;38.21
32933;BME280;19444;50.518;10.870;2023-04-05T12:57:01;96837.69;;;8.94;43.81
32933;BME280;19444;50.518;10.870;2023-04-05T13:00:00;96833.09;;;8.33;43.50
32933;BME280;19444;50.518;10.870;2023-04-05T13:02:58;96830.41;;;9.84;41.25
32933;BME280;19444;50.518;10.870;2023-04-05T13:05:55;96820.00;;;9.82;37.90
32933;BME280;19444;50.518;10.870;2023-04-05T13:08:52;96811.34;;;10.59;37.45
32933;BME280;19444;50.518;10.870;2023-04-05T13:11:49;96811.84;;;9.41;38.94
32933;BME280;19444;50.518;10.870;2023-04-05T13:14:47;96806.69;;;11.37;36.00
32933;BME280;19444;50.518;10.870;2023-04-05T13:17:45;96802.63;;;12.81;34.69
32933;BME280;19444;50.518;10.870;2023-04-05T13:20:45;96793.69;;;14.40;34.06
32933;BME280;19444;50.518;10.870;2023-04-05T13:23:42;96790.44;;;12.18;34.06
32933;BME280;19444;50.518;10.870;2023-04-05T13:26:39;96796.88;;;10.46;39.15
32933;BME280;19444;50.518;10.870;2023-04-05T13:29:36;96796.50;;;8.95;44.61
32933;BME280;19444;50.518;10.870;2023-04-05T13:32:33;96795.69;;;8.76;41.75
32933;BME280;19444;50.518;10.870;2023-04-05T13:35:30;96773.91;;;10.68;37.86
32933;BME280;19444;50.518;10.870;2023-04-05T13:38:27;96767.69;;;13.24;43.17
32933;BME280;19444;50.518;10.870;2023-04-05T13:41:24;96769.69;;;12.10;35.07
32933;BME280;19444;50.518;10.870;2023-04-05T13:44:22;96754.53;;;12.97;34.41
32933;BME280;19444;50.518;10.870;2023-04-05T13:47:19;96764.97;;;12.72;33.34
32933;BME280;19444;50.518;10.870;2023-04-05T13:50:15;96773.66;;;9.54;38.11
32933;BME280;19444;50.518;10.870;2023-04-05T13:53:12;96768.19;;;8.75;40.20
32933;BME280;19444;50.518;10.870;2023-04-05T13:56:09;96752.84;;;10.89;36.26
32933;BME280;19444;50.518;10.870;2023-04-05T13:59:06;96749.44;;;10.61;36.07
32933;BME280;19444;50.518;10.870;2023-04-05T14:02:03;96743.63;;;11.79;35.54
32933;BME280;19444;50.518;10.870;2023-04-05T14:05:00;96745.31;;;11.98;35.35
32933;BME280;19444;50.518;10.870;2023-04-05T14:07:57;96747.47;;;11.33;34.60
32933;BME280;19444;50.518;10.870;2023-04-05T14:10:54;96743.25;;;11.94;33.16
32933;BME280;19444;50.518;10.870;2023-04-05T14:13:51;96745.53;;;13.10;34.12
32933;BME280;19444;50.518;10.870;2023-04-05T14:16:48;96739.19;;;12.97;43.58
32933;BME280;19444;50.518;10.870;2023-04-05T14:19:45;96743.16;;;13.08;39.47
32933;BME280;19444;50.518;10.870;2023-04-05T14:22:42;96740.75;;;12.64;41.83
32933;BME280;19444;50.518;10.870;2023-04-05T14:25:39;96738.72;;;13.04;48.25
32933;BME280;19444;50.518;10.870;2023-04-05T14:28:36;96739.34;;;12.92;36.70
32933;BME280;19444;50.518;10.870;2023-04-05T14:31:33;96735.53;;;12.76;32.86
32933;BME280;19444;50.518;10.870;2023-04-05T14:34:30;96737.47;;;13.27;54.16
32933;BME280;19444;50.518;10.870;2023-04-05T14:37:27;96743.41;;;11.89;38.46
32933;BME280;19444;50.518;10.870;2023-04-05T14:40:24;96731.09;;;12.80;52.26
32933;BME280;19444;50.518;10.870;2023-04-05T14:43:22;96731.44;;;12.04;42.91
32933;BME280;19444;50.518;10.870;2023-04-05T14:46:22;96732.31;;;12.39;48.23
32933;BME280;19444;50.518;10.870;2023-04-05T14:49:19;96728.13;;;12.07;37.13
32933;BME280;19444;50.518;10.870;2023-04-05T14:52:16;96735.56;;;11.48;40.75
32933;BME280;19444;50.518;10.870;2023-04-05T14:55:13;96729.47;;;12.36;46.84
32933;BME280;19444;50.518;10.870;2023-04-05T14:58:10;96730.44;;;12.40;40.93
32933;BME280;19444;50.518;10.870;2023-04-05T15:01:10;96730.50;;;13.09;46.34
32933;BME280;19444;50.518;10.870;2023-04-05T15:04:07;96724.13;;;11.96;35.77
32933;BME280;19444;50.518;10.870;2023-04-05T15:07:05;96723.81;;;11.98;34.41
32933;BME280;19444;50.518;10.870;2023-04-05T15:10:02;96716.78;;;12.19;36.84
32933;BME280;19444;50.518;10.870;2023-04-05T15:12:59;96717.03;;;13.18;48.28
32933;BME280;19444;50.518;10.870;2023-04-05T15:15:56;96719.78;;;11.47;37.99
32933;BME280;19444;50.518;10.870;2023-04-05T15:18:53;96703.91;;;12.56;42.28
32933;BME280;19444;50.518;10.870;2023-04-05T15:21:51;96727.06;;;10.65;39.70
32933;BME280;19444;50.518;10.870;2023-04-05T15:24:48;96723.69;;;10.73;38.95
32933;BME280;19444;50.518;10.870;2023-04-05T15:27:45;96709.81;;;11.16;40.45
32933;BME280;19444;50.518;10.870;2023-04-05T15:30:42;96705.66;;;11.63;35.54
32933;BME280;19444;50.518;10.870;2023-04-05T15:33:40;96715.88;;;11.30;48.20
32933;BME280;19444;50.518;10.870;2023-04-05T15:36:37;96717.88;;;11.16;49.88
32933;BME280;19444;50.518;10.870;2023-04-05T15:39:34;96722.50;;;10.66;43.49
32933;BME280;19444;50.518;10.870;2023-04-05T15:42:33;96708.53;;;10.55;45.24
32933;BME280;19444;50.518;10.870;2023-04-05T15:45:30;96714.38;;;11.16;45.83
32933;BME280;19444;50.518;10.870;2023-04-05T15:48:27;96712.97;;;10.96;49.20
32933;BME280;19444;50.518;10.870;2023-04-05T15:51:24;96711.44;;;10.81;37.06
32933;BME280;19444;50.518;10.870;2023-04-05T15:54:21;96709.34;;;10.78;41.76
32933;BME280;19444;50.518;10.870;2023-04-05T15:57:18;96704.78;;;10.78;42.65
32933;BME280;19444;50.518;10.870;2023-04-05T16:00:15;96724.75;;;10.09;44.72
32933;BME280;19444;50.518;10.870;2023-04-05T16:03:12;96722.34;;;10.48;41.95